createdAt,value
2023-06-16T00:02:35.110Z,17.66
2023-06-16T00:05:11.045Z,17.64
2023-06-16T00:07:45.833Z,17.78
2023-06-16T00:10:19.347Z,17.81
2023-06-16T00:12:53.246Z,17.73
2023-06-16T00:15:26.450Z,17.68
2023-06-16T00:17:59.696Z,17.63
2023-06-16T00:20:33.746Z,17.64
2023-06-16T00:23:17.557Z,17.50
2023-06-16T00:25:50.830Z,17.47
2023-06-16T00:28:24.086Z,17.51
2023-06-16T00:30:57.498Z,17.44
2023-06-16T00:33:30.726Z,17.40
2023-06-16T00:36:04.180Z,17.26
2023-06-16T00:38:38.689Z,17.10
2023-06-16T00:41:11.852Z,17.12
2023-06-16T00:43:45.435Z,17.00
2023-06-16T00:46:28.952Z,16.93
2023-06-16T00:49:04.085Z,16.85
2023-06-16T00:51:37.656Z,16.68
2023-06-16T00:54:13.941Z,16.66
2023-06-16T00:56:47.711Z,16.68
2023-06-16T00:59:28.190Z,16.55
2023-06-16T01:02:01.778Z,16.64
2023-06-16T01:04:35.109Z,16.56
2023-06-16T01:07:16.650Z,16.55
2023-06-16T01:10:02.397Z,16.47
2023-06-16T01:12:45.765Z,16.36
2023-06-16T01:15:24.548Z,16.32
2023-06-16T01:18:02.817Z,16.17
2023-06-16T01:20:49.367Z,16.22
2023-06-16T01:23:35.320Z,16.25
2023-06-16T01:26:12.867Z,16.21
2023-06-16T01:28:47.331Z,16.11
2023-06-16T01:31:24.124Z,15.97
2023-06-16T01:33:58.510Z,16.07
2023-06-16T01:36:33.980Z,16.04
2023-06-16T01:39:09.298Z,15.93
2023-06-16T01:41:44.164Z,15.86
2023-06-16T01:44:19.177Z,15.79
2023-06-16T01:46:52.925Z,15.80
2023-06-16T01:49:27.013Z,15.74
2023-06-16T01:52:00.555Z,15.60
2023-06-16T01:54:35.257Z,15.56
2023-06-16T01:57:12.593Z,15.59
2023-06-16T01:59:46.396Z,15.61
2023-06-16T02:02:21.861Z,15.46
2023-06-16T02:04:56.539Z,15.28
2023-06-16T02:07:36.842Z,15.26
2023-06-16T02:10:14.528Z,15.30
2023-06-16T02:12:50.439Z,15.22
2023-06-16T02:15:24.579Z,15.13
2023-06-16T02:17:59.524Z,15.03
2023-06-16T02:20:32.793Z,14.99
2023-06-16T02:23:06.770Z,14.95
2023-06-16T02:25:39.940Z,14.91
2023-06-16T02:28:15.247Z,14.85
2023-06-16T02:30:48.433Z,14.93
2023-06-16T02:33:22.256Z,14.96
2023-06-16T02:35:55.476Z,14.88
2023-06-16T02:38:28.711Z,14.89
2023-06-16T02:41:01.898Z,14.89
2023-06-16T02:43:37.319Z,14.84
2023-06-16T02:46:11.280Z,14.81
2023-06-16T02:48:45.564Z,14.72
2023-06-16T02:51:19.036Z,14.71
2023-06-16T02:53:52.958Z,14.71
2023-06-16T02:56:29.998Z,14.61
2023-06-16T02:59:04.847Z,14.67
2023-06-16T03:01:38.989Z,14.67
2023-06-16T03:04:19.838Z,14.64
2023-06-16T03:07:15.968Z,14.55
2023-06-16T03:09:51.414Z,14.63
2023-06-16T03:12:26.909Z,14.68
2023-06-16T03:15:15.408Z,14.78
2023-06-16T03:17:49.218Z,14.75
2023-06-16T03:20:23.741Z,14.81
2023-06-16T03:23:03.960Z,14.78
2023-06-16T03:25:38.141Z,14.75
2023-06-16T03:28:12.252Z,14.68
2023-06-16T03:30:46.871Z,14.49
2023-06-16T03:33:22.785Z,14.44
2023-06-16T03:35:56.936Z,14.51
2023-06-16T03:38:39.821Z,14.49
2023-06-16T03:41:13.220Z,14.49
2023-06-16T03:43:46.448Z,14.41
2023-06-16T03:46:21.983Z,14.34
2023-06-16T03:48:55.146Z,14.28
2023-06-16T03:51:28.454Z,14.35
2023-06-16T03:54:02.134Z,14.42
2023-06-16T03:56:35.381Z,14.38
2023-06-16T03:59:10.111Z,14.33
2023-06-16T04:01:47.959Z,14.24
2023-06-16T04:04:21.328Z,14.27
2023-06-16T04:06:55.508Z,14.24
2023-06-16T04:09:30.752Z,14.25
2023-06-16T04:12:04.397Z,14.35
2023-06-16T04:14:37.854Z,14.41
2023-06-16T04:17:17.014Z,14.52
2023-06-16T04:19:51.834Z,14.63
2023-06-16T04:22:25.198Z,14.84
2023-06-16T04:25:01.365Z,15.56
2023-06-16T04:27:37.340Z,15.71
2023-06-16T04:30:11.867Z,15.59
2023-06-16T04:32:46.606Z,15.54
2023-06-16T04:35:23.730Z,15.51
2023-06-16T04:37:58.434Z,15.56
2023-06-16T04:40:32.141Z,15.61
2023-06-16T04:43:05.794Z,15.66
2023-06-16T04:45:39.602Z,15.83
2023-06-16T04:48:14.876Z,16.42
2023-06-16T04:50:48.156Z,17.03
2023-06-16T04:53:21.870Z,17.53
2023-06-16T04:55:55.204Z,17.95
2023-06-16T04:58:28.395Z,18.28
2023-06-16T05:01:01.798Z,18.56
2023-06-16T05:03:38.871Z,18.77
2023-06-16T05:06:12.531Z,19.03
2023-06-16T05:08:45.834Z,19.37
2023-06-16T05:11:19.096Z,19.71
2023-06-16T05:13:52.246Z,19.79
2023-06-16T05:16:26.067Z,20.20
2023-06-16T05:19:02.307Z,20.46
2023-06-16T05:21:39.713Z,20.80
2023-06-16T05:24:12.983Z,21.05
2023-06-16T05:26:46.413Z,21.41
2023-06-16T05:29:19.750Z,21.59
2023-06-16T05:31:53.085Z,21.69
2023-06-16T05:34:28.518Z,21.88
2023-06-16T05:37:01.721Z,22.26
2023-06-16T05:39:34.867Z,22.23
2023-06-16T05:42:08.875Z,22.44
2023-06-16T05:44:42.740Z,22.70
2023-06-16T05:47:16.492Z,22.81
2023-06-16T05:49:51.250Z,23.19
2023-06-16T05:52:24.819Z,23.48
2023-06-16T05:54:58.637Z,23.42
2023-06-16T05:57:42.698Z,23.83
2023-06-16T06:00:17.695Z,24.13
2023-06-16T06:02:57.556Z,24.30
2023-06-16T06:05:37.606Z,24.43
2023-06-16T06:08:11.413Z,24.43
2023-06-16T06:10:45.555Z,24.57
2023-06-16T06:13:18.787Z,24.71
2023-06-16T06:15:53.463Z,24.78
2023-06-16T06:18:26.829Z,24.23
2023-06-16T06:21:01.772Z,24.36
2023-06-16T06:23:35.652Z,24.68
2023-06-16T06:26:09.759Z,24.64
2023-06-16T06:28:42.951Z,24.65
2023-06-16T06:31:16.712Z,24.96
2023-06-16T06:33:50.040Z,25.31
2023-06-16T06:36:26.710Z,25.41
2023-06-16T06:39:00.661Z,25.41
2023-06-16T06:41:34.395Z,25.41
2023-06-16T06:44:16.416Z,25.50
2023-06-16T06:46:58.570Z,25.82
2023-06-16T06:49:31.808Z,25.94
2023-06-16T06:52:07.298Z,26.05
2023-06-16T06:54:40.528Z,26.07
2023-06-16T06:57:15.320Z,26.44
2023-06-16T06:59:48.467Z,26.58
2023-06-16T07:02:22.809Z,26.76
2023-06-16T07:04:56.585Z,26.78
2023-06-16T07:07:33.283Z,27.08
2023-06-16T07:10:07.665Z,27.23
2023-06-16T07:12:43.032Z,27.08
2023-06-16T07:15:17.646Z,27.12
2023-06-16T07:17:50.945Z,27.40
2023-06-16T07:20:24.129Z,27.39
2023-06-16T07:22:58.742Z,27.30
2023-06-16T07:25:33.947Z,27.18
2023-06-16T07:28:09.086Z,26.91
2023-06-16T07:30:42.320Z,26.85
2023-06-16T07:33:15.619Z,26.95
2023-06-16T07:35:48.837Z,27.43
2023-06-16T07:38:23.330Z,27.84
2023-06-16T07:40:56.519Z,27.94
2023-06-16T07:43:29.712Z,27.26
2023-06-16T07:46:05.563Z,27.77
2023-06-16T07:48:38.725Z,27.56
2023-06-16T07:51:11.972Z,27.32
2023-06-16T07:53:46.799Z,27.35
2023-06-16T07:56:20.092Z,27.61
2023-06-16T07:58:53.288Z,27.98
2023-06-16T08:01:27.868Z,27.74
2023-06-16T08:04:01.235Z,27.22
2023-06-16T08:06:34.671Z,27.13
2023-06-16T08:09:09.644Z,26.91
2023-06-16T08:11:42.815Z,27.45
2023-06-16T08:14:18.685Z,27.96
2023-06-16T08:16:51.785Z,27.90
2023-06-16T08:19:24.957Z,27.81
2023-06-16T08:21:58.107Z,28.02
2023-06-16T08:24:32.896Z,27.96
2023-06-16T08:27:07.793Z,27.42
2023-06-16T08:29:41.084Z,27.43
2023-06-16T08:32:14.218Z,27.09
2023-06-16T08:34:49.907Z,27.33
2023-06-16T08:37:30.543Z,27.54
2023-06-16T08:40:11.638Z,27.18
2023-06-16T08:42:49.349Z,27.63
2023-06-16T08:45:23.279Z,27.97
2023-06-16T08:47:56.557Z,28.02
2023-06-16T08:50:30.493Z,28.28
2023-06-16T08:53:07.483Z,28.35
2023-06-16T08:55:43.476Z,28.62
2023-06-16T08:58:18.203Z,28.08
2023-06-16T09:00:52.069Z,27.70
2023-06-16T09:03:27.269Z,27.71
2023-06-16T09:06:01.982Z,27.98
2023-06-16T09:08:35.162Z,27.90
2023-06-16T09:11:10.386Z,27.89
2023-06-16T09:13:46.857Z,28.44
2023-06-16T09:16:21.743Z,28.80
2023-06-16T09:18:55.320Z,29.09
2023-06-16T09:21:30.731Z,28.85
2023-06-16T09:24:09.246Z,28.64
2023-06-16T09:26:43.865Z,28.82
2023-06-16T09:29:25.311Z,28.62
2023-06-16T09:32:09.421Z,28.47
2023-06-16T09:34:44.946Z,28.80
2023-06-16T09:37:21.461Z,28.79
2023-06-16T09:39:54.758Z,28.51
2023-06-16T09:42:30.825Z,28.01
2023-06-16T09:45:10.619Z,28.95
2023-06-16T09:47:46.201Z,29.38
2023-06-16T09:50:24.717Z,30.04
2023-06-16T09:52:58.390Z,30.24
2023-06-16T09:55:34.349Z,30.04
2023-06-16T09:58:09.079Z,30.02
2023-06-16T10:00:42.233Z,29.92
2023-06-16T10:03:16.211Z,30.14
2023-06-16T10:05:55.606Z,30.65
2023-06-16T10:08:28.909Z,29.96
2023-06-16T10:11:02.588Z,29.19
2023-06-16T10:13:38.680Z,29.17
2023-06-16T10:16:14.253Z,29.49
2023-06-16T10:18:50.240Z,30.38
2023-06-16T10:21:24.921Z,30.29
2023-06-16T10:23:58.250Z,29.25
2023-06-16T10:26:31.987Z,29.66
2023-06-16T10:29:07.352Z,29.19
2023-06-16T10:31:41.430Z,29.07
2023-06-16T10:34:21.673Z,29.45
2023-06-16T10:36:56.084Z,29.82
2023-06-16T10:39:29.482Z,29.96
2023-06-16T10:42:02.824Z,30.53
2023-06-16T10:44:37.803Z,30.42
2023-06-16T10:47:38.310Z,30.84
2023-06-16T10:50:11.513Z,30.89
2023-06-16T10:52:54.297Z,30.12
2023-06-16T10:55:36.942Z,29.82
2023-06-16T10:58:31.930Z,30.14
2023-06-16T11:01:26.549Z,29.34
2023-06-16T11:04:03.801Z,29.26
2023-06-16T11:07:26.692Z,29.81
2023-06-16T11:10:07.628Z,29.78
2023-06-16T11:12:40.852Z,29.73
2023-06-16T11:15:14.496Z,29.26
2023-06-16T11:17:49.707Z,30.01
2023-06-16T11:20:23.380Z,30.28
2023-06-16T11:22:56.963Z,30.42
2023-06-16T11:25:30.076Z,30.62
2023-06-16T11:28:03.399Z,29.97
2023-06-16T11:30:38.298Z,29.85
2023-06-16T11:33:13.862Z,30.52
2023-06-16T11:35:47.257Z,30.89
2023-06-16T11:38:24.130Z,29.87
2023-06-16T11:41:10.463Z,30.45
2023-06-16T11:43:49.150Z,31.14
2023-06-16T11:46:25.337Z,31.54
2023-06-16T11:49:00.043Z,31.53
2023-06-16T11:51:33.276Z,31.75
2023-06-16T11:54:06.644Z,31.84
2023-06-16T11:56:41.489Z,31.70
2023-06-16T11:59:14.934Z,30.65
2023-06-16T12:01:49.103Z,30.38
2023-06-16T12:04:24.313Z,30.08
2023-06-16T12:06:58.432Z,30.35
2023-06-16T12:09:38.160Z,29.80
2023-06-16T12:12:15.128Z,30.75
2023-06-16T12:14:48.458Z,30.46
2023-06-16T12:17:25.250Z,30.82
2023-06-16T12:19:59.791Z,31.22
2023-06-16T12:22:39.744Z,31.26
2023-06-16T12:25:16.820Z,31.29
2023-06-16T12:27:52.852Z,31.60
2023-06-16T12:30:34.496Z,31.34
2023-06-16T12:33:11.464Z,31.43
2023-06-16T12:35:48.693Z,32.19
2023-06-16T12:38:32.150Z,32.14
2023-06-16T12:41:05.283Z,32.55
2023-06-16T12:43:38.433Z,32.19
2023-06-16T12:46:11.624Z,32.45
2023-06-16T12:48:44.910Z,32.65
2023-06-16T12:51:19.469Z,32.66
2023-06-16T12:53:52.647Z,32.78
2023-06-16T12:56:25.911Z,32.49
2023-06-16T12:58:59.144Z,33.07
2023-06-16T13:01:32.309Z,32.65
2023-06-16T13:04:06.009Z,32.56
2023-06-16T13:06:40.631Z,32.46
2023-06-16T13:09:14.103Z,32.59
2023-06-16T13:11:47.288Z,32.45
2023-06-16T13:14:22.851Z,31.50
2023-06-16T13:16:57.318Z,30.55
2023-06-16T13:19:31.553Z,30.15
2023-06-16T13:22:08.019Z,30.00
2023-06-16T13:24:41.211Z,29.91
2023-06-16T13:27:14.364Z,30.02
2023-06-16T13:29:47.545Z,29.15
2023-06-16T13:32:20.692Z,29.63
2023-06-16T13:34:53.870Z,30.75
2023-06-16T13:37:28.395Z,31.54
2023-06-16T13:40:01.631Z,30.94
2023-06-16T13:42:34.877Z,31.33
2023-06-16T13:45:09.295Z,31.74
2023-06-16T13:47:42.501Z,32.22
2023-06-16T13:50:15.893Z,33.03
2023-06-16T13:52:50.505Z,33.57
2023-06-16T13:55:25.460Z,33.03
2023-06-16T13:57:58.915Z,31.73
2023-06-16T14:00:32.429Z,32.22
2023-06-16T14:03:06.181Z,32.84
2023-06-16T14:05:41.256Z,33.04
2023-06-16T14:08:16.028Z,33.31
2023-06-16T14:10:51.420Z,33.16
2023-06-16T14:13:24.951Z,32.83
2023-06-16T14:15:58.187Z,32.24
2023-06-16T14:18:31.373Z,32.08
2023-06-16T14:21:04.682Z,32.46
2023-06-16T14:23:39.308Z,32.66
2023-06-16T14:26:14.906Z,32.19
2023-06-16T14:28:48.050Z,31.16
2023-06-16T14:31:21.453Z,30.79
2023-06-16T14:33:55.955Z,31.22
2023-06-16T14:36:29.140Z,30.68
2023-06-16T14:39:03.786Z,30.55
2023-06-16T14:41:38.201Z,31.51
2023-06-16T14:44:11.440Z,31.40
2023-06-16T14:46:44.659Z,30.04
2023-06-16T14:49:17.948Z,29.53
2023-06-16T14:51:53.463Z,29.10
2023-06-16T14:54:28.642Z,29.09
2023-06-16T14:57:02.171Z,29.16
2023-06-16T14:59:35.982Z,28.51
2023-06-16T15:02:09.161Z,29.71
2023-06-16T15:04:42.483Z,30.86
2023-06-16T15:07:15.723Z,31.71
2023-06-16T15:09:50.500Z,31.57
2023-06-16T15:12:23.726Z,31.67
2023-06-16T15:14:56.909Z,31.88
2023-06-16T15:17:30.441Z,32.80
2023-06-16T15:20:03.764Z,33.29
2023-06-16T15:22:39.439Z,33.13
2023-06-16T15:25:13.943Z,32.51
2023-06-16T15:27:51.864Z,32.75
2023-06-16T15:30:30.001Z,32.89
2023-06-16T15:33:05.560Z,31.75
2023-06-16T15:35:38.784Z,31.13
2023-06-16T15:38:12.039Z,30.72
2023-06-16T15:40:46.829Z,31.00
2023-06-16T15:43:20.080Z,31.51
2023-06-16T15:45:57.377Z,31.84
2023-06-16T15:48:30.553Z,31.41
2023-06-16T15:51:03.685Z,31.35
2023-06-16T15:53:36.956Z,30.97
2023-06-16T15:56:11.569Z,30.86
2023-06-16T15:58:44.887Z,31.03
2023-06-16T16:01:18.526Z,31.41
2023-06-16T16:03:54.260Z,30.99
2023-06-16T16:06:27.648Z,30.25
2023-06-16T16:09:00.849Z,29.54
2023-06-16T16:11:37.776Z,29.05
2023-06-16T16:14:11.043Z,28.61
2023-06-16T16:16:44.338Z,28.49
2023-06-16T16:19:17.669Z,28.25
2023-06-16T16:21:51.278Z,29.20
2023-06-16T16:24:24.743Z,29.91
2023-06-16T16:26:59.367Z,30.87
2023-06-16T16:29:35.022Z,30.99
2023-06-16T16:32:08.814Z,30.96
2023-06-16T16:34:42.061Z,31.14
2023-06-16T16:37:15.344Z,30.58
2023-06-16T16:39:48.546Z,30.58
2023-06-16T16:42:23.072Z,30.24
2023-06-16T16:44:56.303Z,29.88
2023-06-16T16:47:29.510Z,29.66
2023-06-16T16:50:03.772Z,29.50
2023-06-16T16:52:36.985Z,29.68
2023-06-16T16:55:22.469Z,29.88
2023-06-16T16:58:05.547Z,30.07
2023-06-16T17:00:38.732Z,30.11
2023-06-16T17:03:12.045Z,30.17
2023-06-16T17:05:45.222Z,29.91
2023-06-16T17:08:19.061Z,29.53
2023-06-16T17:10:52.326Z,29.17
2023-06-16T17:13:26.890Z,29.13
2023-06-16T17:16:03.834Z,29.78
2023-06-16T17:18:37.041Z,29.87
2023-06-16T17:21:10.275Z,30.01
2023-06-16T17:23:44.507Z,29.94
2023-06-16T17:26:17.885Z,30.04
2023-06-16T17:28:52.598Z,30.04
2023-06-16T17:31:25.869Z,29.90
2023-06-16T17:33:59.062Z,29.82
2023-06-16T17:36:32.304Z,29.50
2023-06-16T17:39:05.623Z,29.31
2023-06-16T17:41:40.169Z,28.98
2023-06-16T17:44:14.673Z,29.06
2023-06-16T17:46:47.918Z,29.40
2023-06-16T17:49:24.127Z,29.37
2023-06-16T17:51:57.802Z,29.36
2023-06-16T17:54:30.955Z,29.34
2023-06-16T17:57:04.340Z,29.02
2023-06-16T17:59:38.858Z,28.96
2023-06-16T18:02:11.996Z,28.83
2023-06-16T18:04:45.490Z,28.86
2023-06-16T18:07:18.656Z,28.79
2023-06-16T18:09:51.821Z,28.93
2023-06-16T18:12:25.089Z,28.85
2023-06-16T18:14:59.721Z,28.68
2023-06-16T18:17:33.951Z,28.93
2023-06-16T18:20:10.069Z,28.69
2023-06-16T18:22:43.253Z,28.37
2023-06-16T18:25:16.438Z,28.45
2023-06-16T18:27:49.688Z,28.51
2023-06-16T18:30:24.296Z,28.41
2023-06-16T18:32:57.789Z,28.00
2023-06-16T18:35:31.507Z,27.64
2023-06-16T18:38:04.826Z,27.32
2023-06-16T18:40:38.147Z,27.03
2023-06-16T18:43:11.398Z,26.99
2023-06-16T18:45:46.142Z,26.88
2023-06-16T18:48:19.324Z,26.86
2023-06-16T18:50:52.512Z,26.92
2023-06-16T18:53:25.735Z,26.98
2023-06-16T18:55:58.844Z,27.06
2023-06-16T18:58:32.847Z,27.05
2023-06-16T19:01:07.489Z,26.94
2023-06-16T19:03:41.290Z,26.86
2023-06-16T19:06:15.270Z,26.61
2023-06-16T19:08:49.698Z,26.30
2023-06-16T19:11:23.619Z,26.12
2023-06-16T19:13:56.866Z,25.84
2023-06-16T19:16:31.611Z,25.62
2023-06-16T19:19:04.799Z,25.53
2023-06-16T19:21:38.110Z,25.36
2023-06-16T19:24:11.441Z,25.35
2023-06-16T19:26:44.769Z,25.29
2023-06-16T19:29:19.614Z,25.29
2023-06-16T19:31:55.817Z,25.19
2023-06-16T19:34:29.058Z,25.09
2023-06-16T19:37:04.555Z,24.96
2023-06-16T19:39:37.716Z,24.91
2023-06-16T19:42:11.032Z,24.69
2023-06-16T19:44:44.249Z,24.58
2023-06-16T19:47:18.836Z,24.40
2023-06-16T19:49:52.152Z,24.18
2023-06-16T19:52:25.322Z,24.14
2023-06-16T19:54:58.492Z,24.05
2023-06-16T19:57:31.964Z,23.90
2023-06-16T20:00:06.014Z,23.75
2023-06-16T20:02:48.462Z,23.56
2023-06-16T20:05:23.080Z,23.43
2023-06-16T20:07:56.475Z,23.33
2023-06-16T20:10:30.902Z,23.19
2023-06-16T20:13:05.857Z,23.08
2023-06-16T20:15:39.516Z,22.94
2023-06-16T20:18:14.150Z,22.80
2023-06-16T20:20:49.900Z,22.63
2023-06-16T20:23:23.274Z,22.44
2023-06-16T20:25:58.814Z,22.27
2023-06-16T20:28:32.022Z,22.19
2023-06-16T20:31:05.337Z,22.13
2023-06-16T20:33:40.258Z,22.05
2023-06-16T20:36:13.711Z,22.00
2023-06-16T20:38:47.126Z,22.07
2023-06-16T20:41:20.364Z,22.39
2023-06-16T20:43:54.056Z,22.60
2023-06-16T20:46:32.070Z,22.63
2023-06-16T20:49:10.029Z,22.64
2023-06-16T20:51:43.244Z,22.68
2023-06-16T20:54:16.427Z,22.63
2023-06-16T20:56:54.251Z,22.60
2023-06-16T20:59:28.154Z,22.59
2023-06-16T21:02:01.684Z,22.53
2023-06-16T21:04:36.270Z,22.49
2023-06-16T21:07:09.500Z,22.40
2023-06-16T21:09:42.702Z,22.29
2023-06-16T21:12:15.946Z,22.20
2023-06-16T21:14:49.250Z,22.16
2023-06-16T21:17:22.515Z,22.10
2023-06-16T21:19:57.059Z,22.05
2023-06-16T21:22:30.271Z,22.02
2023-06-16T21:25:03.862Z,22.00
2023-06-16T21:27:37.011Z,21.98
2023-06-16T21:30:10.647Z,21.95
2023-06-16T21:32:43.899Z,21.88
2023-06-16T21:35:18.751Z,21.79
2023-06-16T21:37:51.981Z,21.74
2023-06-16T21:40:25.167Z,21.66
2023-06-16T21:42:59.030Z,21.65
2023-06-16T21:45:32.349Z,21.49
2023-06-16T21:48:05.913Z,21.34
2023-06-16T21:50:41.408Z,21.27
2023-06-16T21:53:14.725Z,21.12
2023-06-16T21:55:47.933Z,20.97
2023-06-16T21:58:21.184Z,20.85
2023-06-16T22:00:54.328Z,20.77
2023-06-16T22:03:27.635Z,20.69
2023-06-16T22:06:02.379Z,20.57
2023-06-16T22:08:35.673Z,20.47
2023-06-16T22:11:09.180Z,20.33
2023-06-16T22:13:42.870Z,20.26
2023-06-16T22:16:16.857Z,20.00
2023-06-16T22:18:50.213Z,19.89
2023-06-16T22:21:24.782Z,19.77
2023-06-16T22:23:58.074Z,19.71
2023-06-16T22:26:31.263Z,19.64
2023-06-16T22:29:07.882Z,19.54
2023-06-16T22:31:42.300Z,19.47
2023-06-16T22:34:15.726Z,19.32
2023-06-16T22:36:50.969Z,19.32
2023-06-16T22:39:24.148Z,19.41
2023-06-16T22:41:57.389Z,19.31
2023-06-16T22:44:31.228Z,19.13
2023-06-16T22:47:05.219Z,19.14
2023-06-16T22:49:38.476Z,19.11
2023-06-16T22:52:13.085Z,19.08
2023-06-16T22:54:46.243Z,19.06
2023-06-16T22:57:19.504Z,19.03
2023-06-16T22:59:52.736Z,18.99
2023-06-16T23:02:26.000Z,18.73
2023-06-16T23:04:59.299Z,18.70
2023-06-16T23:07:34.022Z,18.62
2023-06-16T23:10:08.806Z,18.56
2023-06-16T23:12:42.061Z,18.41
2023-06-16T23:15:15.361Z,18.36
2023-06-16T23:17:48.620Z,18.26
2023-06-16T23:20:22.473Z,18.19
2023-06-16T23:22:57.214Z,18.13
2023-06-16T23:25:30.499Z,18.05
2023-06-16T23:28:04.887Z,17.94
2023-06-16T23:30:42.358Z,17.95
2023-06-16T23:33:18.516Z,18.05
2023-06-16T23:35:52.645Z,18.00
2023-06-16T23:38:27.228Z,17.95
2023-06-16T23:41:00.599Z,17.67
2023-06-16T23:43:34.454Z,17.46
2023-06-16T23:46:08.089Z,17.39
2023-06-16T23:48:41.269Z,17.50
2023-06-16T23:51:14.456Z,17.41
2023-06-16T23:53:48.936Z,17.43
2023-06-16T23:56:22.171Z,17.37
2023-06-16T23:58:55.341Z,17.26
